Flight Number: EUR3050 Duration: 11:00
Departure: Dublin Airport (EIDW) at 07:00 Distance: 4515 Nm
Arrival: San Diego Int'l Airport (KSAN) at 18:00 Equipment: B777

Weather Information
Dublin Airport, Ireland (EIDW) 53-26N 006-15W 85M May 24, 2018 - 05:30 PM EDT / 2018.05.24 2130 UTC
Wind: from the NNW (340 degrees) at 3 MPH (3 KT):0
Visibility: greater than 7 mile(s):0
Sky conditions: mostly cloudy Weather: light rain Temperature: 51 F (11 C) Dew Point: 50 F (10 C) Relative Humidity: 93% Pressure (altimeter): 30.18 in. Hg (1022 hPa)
ob: EIDW 242130Z 34003KT 9999 -RA FEW015 BKN070 BKN110 11/10 Q1022 NOSIG cycle: 21
Sunrise: 04:15 Sunset: 20:28 (UTC)

SAN DIEGO INTERNATIONAL \LINDBERGH FLD, CA, United States (KSAN) 32-44N 117-11W 12M May 24, 2018 - 05:34 PM EDT / 2018.05.24 2134 UTC
Wind: from the NW (310 degrees) at 9 MPH (8 KT):0
Visibility: 10 mile(s):0
Sky conditions: overcast Temperature: 64.9 F (18.3 C) Dew Point: 53.1 F (11.7 C) Relative Humidity: 65% Pressure (altimeter): 30.1 in. Hg (1019 hPa)
ob: KSAN 242134Z 31008KT 10SM SCT023 OVC032 18/12 A3010 RMK AO2 T01830117 cycle: 21
Sunrise: 12:47 Sunset: 02:44 (UTC)

TAF:2018/05/24 21:48 TAF AMD KSAN 242046Z 2421/2524 33007KT P6SM BKN025 FM250300 29005KT P6SM OVC017 FM251500 VRB03KT P6SM BKN022 FM251700 29008KT P6SM SCT025 FM252000 29013G19KT P6SM SCT025

This route has never been flown.

Route map